Polo, Illinois
Current Conditions -  °F | °C
As of 10:15 AM on Sunday 28 Dec 2014 (Local Time) from KFEP Reporting Station
Clear Clear  
Wind Chill: 18°   Ceiling: Unl
Heat Index: 24°   Visibility: 10mi
Dew Point: 18°   Wind: 5mph
Humidity: 79%   Direction: 250°WSW
Pressure: 30.21"   Gusts: NA
Location:  41.99°N, 89.58°W
Report Text: KFEP 281615Z AUTO 25004KT 10SM CLR M05/M08 A3021 RMK AO2 T10461077
Loading
Personal Weather Stations






























Interactive Weather Map New forecast layout! Learn more

10-Day Weather Forecast

Advertisements
Track Severe Weather on mobile